Ash Springs, Nevada
Current Conditions -  °F | °C
As of 10:35 PM on Monday 20 Oct 2014 (Local Time) from KSGU Reporting Station
Overcast Overcast  
Wind Chill: 70°   Ceiling: 12000
Heat Index: 70°   Visibility: 10mi
Dew Point: 37°   Wind: 9mph
Humidity: 31%   Direction: 100°E
Pressure: 29.92"   Gusts: NA
Location:  37.6°N, 114.8°W
Report Text: KSGU 210535Z AUTO 10008KT 10SM OVC120 21/03 A2992 RMK AO1
Loading
Personal Weather Stations






























Interactive Weather Map New forecast layout! Learn more

10-Day Weather Forecast

Advertisements
Track Severe Weather on mobile